sensor_id;sensor_type;location;lat;lon;timestamp;temperature;humidity
13375;DHT22;6756;51.354;15.754;2023-11-21T00:02:56;7.60;99.90
13375;DHT22;6756;51.354;15.754;2023-11-21T00:06:58;7.60;99.90
13375;DHT22;6756;51.354;15.754;2023-11-21T00:10:58;7.60;99.90
13375;DHT22;6756;51.354;15.754;2023-11-21T00:15:01;7.60;99.90
13375;DHT22;6756;51.354;15.754;2023-11-21T00:19:02;7.70;99.90
13375;DHT22;6756;51.354;15.754;2023-11-21T00:23:03;7.70;99.90
13375;DHT22;6756;51.354;15.754;2023-11-21T00:27:03;7.70;99.90
13375;DHT22;6756;51.354;15.754;2023-11-21T00:31:04;7.70;99.90
13375;DHT22;6756;51.354;15.754;2023-11-21T00:35:06;7.70;99.90
13375;DHT22;6756;51.354;15.754;2023-11-21T00:39:07;7.70;99.90
13375;DHT22;6756;51.354;15.754;2023-11-21T00:43:08;7.70;99.90
13375;DHT22;6756;51.354;15.754;2023-11-21T00:47:08;7.70;99.90
13375;DHT22;6756;51.354;15.754;2023-11-21T00:51:09;7.70;99.90
13375;DHT22;6756;51.354;15.754;2023-11-21T00:55:11;7.70;99.90
13375;DHT22;6756;51.354;15.754;2023-11-21T00:59:12;7.60;99.90
13375;DHT22;6756;51.354;15.754;2023-11-21T01:03:13;7.60;99.90
13375;DHT22;6756;51.354;15.754;2023-11-21T01:07:14;7.60;99.90
13375;DHT22;6756;51.354;15.754;2023-11-21T01:11:14;7.60;99.90
13375;DHT22;6756;51.354;15.754;2023-11-21T01:15:16;7.60;99.90
13375;DHT22;6756;51.354;15.754;2023-11-21T01:19:17;7.60;99.90
13375;DHT22;6756;51.354;15.754;2023-11-21T01:23:18;7.60;99.90
13375;DHT22;6756;51.354;15.754;2023-11-21T01:27:19;7.60;99.90
13375;DHT22;6756;51.354;15.754;2023-11-21T01:31:19;7.60;99.90
13375;DHT22;6756;51.354;15.754;2023-11-21T01:35:21;7.60;99.90
13375;DHT22;6756;51.354;15.754;2023-11-21T01:39:23;7.50;99.90
13375;DHT22;6756;51.354;15.754;2023-11-21T01:43:24;7.50;99.90
13375;DHT22;6756;51.354;15.754;2023-11-21T01:47:25;7.50;99.90
13375;DHT22;6756;51.354;15.754;2023-11-21T01:51:26;7.50;99.90
13375;DHT22;6756;51.354;15.754;2023-11-21T01:55:27;7.60;99.90
13375;DHT22;6756;51.354;15.754;2023-11-21T01:59:34;7.60;99.90
13375;DHT22;6756;51.354;15.754;2023-11-21T02:03:36;7.60;99.90
13375;DHT22;6756;51.354;15.754;2023-11-21T02:07:37;7.50;99.90
13375;DHT22;6756;51.354;15.754;2023-11-21T02:11:39;7.50;99.90
13375;DHT22;6756;51.354;15.754;2023-11-21T02:15:40;7.50;99.90
13375;DHT22;6756;51.354;15.754;2023-11-21T02:19:41;7.50;99.90
13375;DHT22;6756;51.354;15.754;2023-11-21T02:23:42;7.50;99.90
13375;DHT22;6756;51.354;15.754;2023-11-21T02:27:44;7.50;99.90
13375;DHT22;6756;51.354;15.754;2023-11-21T02:31:51;7.50;99.90
13375;DHT22;6756;51.354;15.754;2023-11-21T02:35:52;7.50;99.90
13375;DHT22;6756;51.354;15.754;2023-11-21T02:39:55;7.50;99.90
13375;DHT22;6756;51.354;15.754;2023-11-21T02:43:56;7.50;99.90
13375;DHT22;6756;51.354;15.754;2023-11-21T02:47:56;7.50;99.90
13375;DHT22;6756;51.354;15.754;2023-11-21T02:51:57;7.50;99.90
13375;DHT22;6756;51.354;15.754;2023-11-21T02:56:00;7.50;99.90
13375;DHT22;6756;51.354;15.754;2023-11-21T03:00:01;7.50;99.90
13375;DHT22;6756;51.354;15.754;2023-11-21T03:04:03;7.50;99.90
13375;DHT22;6756;51.354;15.754;2023-11-21T03:08:05;7.40;99.90
13375;DHT22;6756;51.354;15.754;2023-11-21T03:12:05;7.40;99.90
13375;DHT22;6756;51.354;15.754;2023-11-21T03:16:08;7.40;99.90
13375;DHT22;6756;51.354;15.754;2023-11-21T03:20:09;7.40;99.90
13375;DHT22;6756;51.354;15.754;2023-11-21T03:24:11;7.40;99.90
13375;DHT22;6756;51.354;15.754;2023-11-21T03:28:13;7.40;99.90
13375;DHT22;6756;51.354;15.754;2023-11-21T03:32:14;7.40;99.90
13375;DHT22;6756;51.354;15.754;2023-11-21T03:36:14;7.40;99.90
13375;DHT22;6756;51.354;15.754;2023-11-21T03:40:15;7.40;99.90
13375;DHT22;6756;51.354;15.754;2023-11-21T03:44:16;7.40;99.90
13375;DHT22;6756;51.354;15.754;2023-11-21T03:48:18;7.30;99.90
13375;DHT22;6756;51.354;15.754;2023-11-21T03:52:19;7.40;99.90
13375;DHT22;6756;51.354;15.754;2023-11-21T03:56:20;7.30;99.90
13375;DHT22;6756;51.354;15.754;2023-11-21T04:00:24;7.30;99.90
13375;DHT22;6756;51.354;15.754;2023-11-21T04:04:27;7.30;99.90
13375;DHT22;6756;51.354;15.754;2023-11-21T04:08:29;7.30;99.90
13375;DHT22;6756;51.354;15.754;2023-11-21T04:12:31;7.30;99.90
13375;DHT22;6756;51.354;15.754;2023-11-21T04:16:31;7.30;99.90
13375;DHT22;6756;51.354;15.754;2023-11-21T04:20:32;7.30;99.90
13375;DHT22;6756;51.354;15.754;2023-11-21T04:24:33;7.30;99.90
13375;DHT22;6756;51.354;15.754;2023-11-21T04:28:33;7.30;99.90
13375;DHT22;6756;51.354;15.754;2023-11-21T04:32:35;7.30;99.90
13375;DHT22;6756;51.354;15.754;2023-11-21T04:36:36;7.30;99.90
13375;DHT22;6756;51.354;15.754;2023-11-21T04:40:36;7.30;99.90
13375;DHT22;6756;51.354;15.754;2023-11-21T04:44:37;7.30;99.90
13375;DHT22;6756;51.354;15.754;2023-11-21T04:48:41;7.30;99.90
13375;DHT22;6756;51.354;15.754;2023-11-21T04:52:42;7.30;99.90
13375;DHT22;6756;51.354;15.754;2023-11-21T04:56:43;7.30;99.90
13375;DHT22;6756;51.354;15.754;2023-11-21T05:00:44;7.20;99.90
13375;DHT22;6756;51.354;15.754;2023-11-21T05:04:45;7.30;99.90
13375;DHT22;6756;51.354;15.754;2023-11-21T05:08:47;7.20;99.90
13375;DHT22;6756;51.354;15.754;2023-11-21T05:12:49;7.20;99.90
13375;DHT22;6756;51.354;15.754;2023-11-21T05:16:51;7.20;99.90
13375;DHT22;6756;51.354;15.754;2023-11-21T05:20:52;7.20;99.90
13375;DHT22;6756;51.354;15.754;2023-11-21T05:24:54;7.20;99.90
13375;DHT22;6756;51.354;15.754;2023-11-21T05:28:55;7.20;99.90
13375;DHT22;6756;51.354;15.754;2023-11-21T05:32:57;7.10;99.90
13375;DHT22;6756;51.354;15.754;2023-11-21T05:36:57;7.10;99.90
13375;DHT22;6756;51.354;15.754;2023-11-21T05:40:58;7.10;99.90
13375;DHT22;6756;51.354;15.754;2023-11-21T05:44:59;7.10;99.90
13375;DHT22;6756;51.354;15.754;2023-11-21T05:49:09;7.20;99.90
13375;DHT22;6756;51.354;15.754;2023-11-21T05:53:10;7.10;99.90
13375;DHT22;6756;51.354;15.754;2023-11-21T05:57:12;7.10;99.90
13375;DHT22;6756;51.354;15.754;2023-11-21T06:01:12;7.10;99.90
13375;DHT22;6756;51.354;15.754;2023-11-21T06:05:13;7.10;99.90
13375;DHT22;6756;51.354;15.754;2023-11-21T06:09:14;7.10;99.90
13375;DHT22;6756;51.354;15.754;2023-11-21T06:13:15;7.10;99.90
13375;DHT22;6756;51.354;15.754;2023-11-21T06:17:16;7.10;99.90
13375;DHT22;6756;51.354;15.754;2023-11-21T06:21:17;7.10;99.90
13375;DHT22;6756;51.354;15.754;2023-11-21T06:25:19;7.10;99.90
13375;DHT22;6756;51.354;15.754;2023-11-21T06:29:20;7.10;99.90
13375;DHT22;6756;51.354;15.754;2023-11-21T06:33:20;7.10;99.90
13375;DHT22;6756;51.354;15.754;2023-11-21T06:37:23;7.10;99.90
13375;DHT22;6756;51.354;15.754;2023-11-21T06:41:24;7.10;99.90
13375;DHT22;6756;51.354;15.754;2023-11-21T06:45:24;7.10;99.90
13375;DHT22;6756;51.354;15.754;2023-11-21T06:49:25;7.10;99.90
13375;DHT22;6756;51.354;15.754;2023-11-21T06:53:27;7.20;99.90
13375;DHT22;6756;51.354;15.754;2023-11-21T06:57:28;7.20;99.90
13375;DHT22;6756;51.354;15.754;2023-11-21T07:01:29;7.20;99.90
13375;DHT22;6756;51.354;15.754;2023-11-21T07:05:30;7.30;99.90
13375;DHT22;6756;51.354;15.754;2023-11-21T07:09:31;7.30;99.90
13375;DHT22;6756;51.354;15.754;2023-11-21T07:13:32;7.30;99.90
13375;DHT22;6756;51.354;15.754;2023-11-21T07:17:32;7.30;99.90
13375;DHT22;6756;51.354;15.754;2023-11-21T07:21:34;7.30;99.90
13375;DHT22;6756;51.354;15.754;2023-11-21T07:25:35;7.40;99.90
13375;DHT22;6756;51.354;15.754;2023-11-21T07:29:36;7.40;99.90
13375;DHT22;6756;51.354;15.754;2023-11-21T07:33:37;7.50;99.90
13375;DHT22;6756;51.354;15.754;2023-11-21T07:37:39;7.50;99.90
13375;DHT22;6756;51.354;15.754;2023-11-21T07:41:42;7.50;99.90
13375;DHT22;6756;51.354;15.754;2023-11-21T07:45:48;7.50;99.90
13375;DHT22;6756;51.354;15.754;2023-11-21T07:49:49;7.50;99.90
13375;DHT22;6756;51.354;15.754;2023-11-21T07:53:52;7.50;99.90
13375;DHT22;6756;51.354;15.754;2023-11-21T07:57:53;7.50;99.90
13375;DHT22;6756;51.354;15.754;2023-11-21T08:01:54;7.50;99.90
13375;DHT22;6756;51.354;15.754;2023-11-21T08:05:54;7.60;99.90
13375;DHT22;6756;51.354;15.754;2023-11-21T08:09:55;7.60;99.90
13375;DHT22;6756;51.354;15.754;2023-11-21T08:13:57;7.60;99.90
13375;DHT22;6756;51.354;15.754;2023-11-21T08:18:05;7.70;99.90
13375;DHT22;6756;51.354;15.754;2023-11-21T08:22:10;7.70;99.90
13375;DHT22;6756;51.354;15.754;2023-11-21T08:26:12;7.80;99.90
13375;DHT22;6756;51.354;15.754;2023-11-21T08:30:14;7.80;99.90
13375;DHT22;6756;51.354;15.754;2023-11-21T08:34:16;7.80;99.90
13375;DHT22;6756;51.354;15.754;2023-11-21T08:38:18;7.80;99.90
13375;DHT22;6756;51.354;15.754;2023-11-21T08:42:19;7.70;99.90
13375;DHT22;6756;51.354;15.754;2023-11-21T08:46:21;7.70;99.90
13375;DHT22;6756;51.354;15.754;2023-11-21T08:50:26;7.70;99.90
13375;DHT22;6756;51.354;15.754;2023-11-21T08:54:32;7.60;99.90
13375;DHT22;6756;51.354;15.754;2023-11-21T08:58:34;7.60;99.90
13375;DHT22;6756;51.354;15.754;2023-11-21T09:02:40;7.60;99.90
13375;DHT22;6756;51.354;15.754;2023-11-21T09:06:46;7.60;99.90
13375;DHT22;6756;51.354;15.754;2023-11-21T09:10:49;7.50;99.90
13375;DHT22;6756;51.354;15.754;2023-11-21T09:14:51;7.50;99.90
13375;DHT22;6756;51.354;15.754;2023-11-21T09:18:53;7.50;99.90
13375;DHT22;6756;51.354;15.754;2023-11-21T09:22:55;7.40;99.90
13375;DHT22;6756;51.354;15.754;2023-11-21T09:26:58;7.30;99.90
13375;DHT22;6756;51.354;15.754;2023-11-21T09:31:00;7.20;99.90
13375;DHT22;6756;51.354;15.754;2023-11-21T09:35:11;7.10;99.90
13375;DHT22;6756;51.354;15.754;2023-11-21T09:39:16;7.10;99.90
13375;DHT22;6756;51.354;15.754;2023-11-21T09:43:18;7.10;99.90
13375;DHT22;6756;51.354;15.754;2023-11-21T09:47:20;7.20;99.90
13375;DHT22;6756;51.354;15.754;2023-11-21T09:51:24;7.10;99.90
13375;DHT22;6756;51.354;15.754;2023-11-21T09:55:34;7.10;99.90
13375;DHT22;6756;51.354;15.754;2023-11-21T09:59:37;7.00;99.90
13375;DHT22;6756;51.354;15.754;2023-11-21T10:03:40;6.80;99.90
13375;DHT22;6756;51.354;15.754;2023-11-21T10:07:44;6.70;99.90
13375;DHT22;6756;51.354;15.754;2023-11-21T10:11:58;6.50;99.90
13375;DHT22;6756;51.354;15.754;2023-11-21T10:16:04;6.50;99.90
13375;DHT22;6756;51.354;15.754;2023-11-21T10:20:09;6.30;99.90
13375;DHT22;6756;51.354;15.754;2023-11-21T10:24:14;6.10;99.90
13375;DHT22;6756;51.354;15.754;2023-11-21T10:28:17;6.00;99.90
13375;DHT22;6756;51.354;15.754;2023-11-21T10:32:18;6.00;99.90
13375;DHT22;6756;51.354;15.754;2023-11-21T10:36:29;6.00;99.90
13375;DHT22;6756;51.354;15.754;2023-11-21T10:40:31;5.90;99.90
13375;DHT22;6756;51.354;15.754;2023-11-21T10:44:36;5.90;99.90
13375;DHT22;6756;51.354;15.754;2023-11-21T10:48:41;5.80;99.90
13375;DHT22;6756;51.354;15.754;2023-11-21T10:52:49;5.80;99.90
13375;DHT22;6756;51.354;15.754;2023-11-21T10:56:57;5.80;99.90
13375;DHT22;6756;51.354;15.754;2023-11-21T11:01:00;5.70;99.90
13375;DHT22;6756;51.354;15.754;2023-11-21T11:05:04;5.60;99.90
13375;DHT22;6756;51.354;15.754;2023-11-21T11:09:13;5.50;99.90
13375;DHT22;6756;51.354;15.754;2023-11-21T11:13:15;5.40;99.90
13375;DHT22;6756;51.354;15.754;2023-11-21T11:17:28;5.30;99.90
13375;DHT22;6756;51.354;15.754;2023-11-21T11:30:38;5.00;99.90
13375;DHT22;6756;51.354;15.754;2023-11-21T11:34:46;4.80;99.90
13375;DHT22;6756;51.354;15.754;2023-11-21T11:38:58;4.70;99.90
13375;DHT22;6756;51.354;15.754;2023-11-21T11:43:03;4.70;99.90
13375;DHT22;6756;51.354;15.754;2023-11-21T11:47:19;4.60;99.90
13375;DHT22;6756;51.354;15.754;2023-11-21T11:51:27;4.50;99.90
13375;DHT22;6756;51.354;15.754;2023-11-21T11:55:35;4.40;99.90
13375;DHT22;6756;51.354;15.754;2023-11-21T12:04:29;4.00;99.90
13375;DHT22;6756;51.354;15.754;2023-11-21T12:08:35;3.90;99.90
13375;DHT22;6756;51.354;15.754;2023-11-21T12:12:59;3.80;99.90
13375;DHT22;6756;51.354;15.754;2023-11-21T12:17:00;3.70;99.90
13375;DHT22;6756;51.354;15.754;2023-11-21T12:21:01;3.60;99.90
13375;DHT22;6756;51.354;15.754;2023-11-21T12:25:02;3.60;99.90
13375;DHT22;6756;51.354;15.754;2023-11-21T12:29:04;3.50;99.90
13375;DHT22;6756;51.354;15.754;2023-11-21T12:33:06;3.50;99.90
13375;DHT22;6756;51.354;15.754;2023-11-21T12:37:08;3.50;99.90
13375;DHT22;6756;51.354;15.754;2023-11-21T12:41:09;3.40;99.90
13375;DHT22;6756;51.354;15.754;2023-11-21T12:49:17;3.30;99.90
13375;DHT22;6756;51.354;15.754;2023-11-21T12:53:19;3.30;99.90
13375;DHT22;6756;51.354;15.754;2023-11-21T12:57:20;3.40;99.90
13375;DHT22;6756;51.354;15.754;2023-11-21T13:01:20;3.40;99.90
13375;DHT22;6756;51.354;15.754;2023-11-21T13:05:27;3.40;99.90
13375;DHT22;6756;51.354;15.754;2023-11-21T13:09:28;3.40;99.90
13375;DHT22;6756;51.354;15.754;2023-11-21T13:13:29;3.40;99.90
13375;DHT22;6756;51.354;15.754;2023-11-21T13:17:30;3.40;99.90
13375;DHT22;6756;51.354;15.754;2023-11-21T13:21:31;3.40;99.90
13375;DHT22;6756;51.354;15.754;2023-11-21T13:25:32;3.40;99.90
13375;DHT22;6756;51.354;15.754;2023-11-21T13:29:33;3.40;99.90
13375;DHT22;6756;51.354;15.754;2023-11-21T13:33:46;3.40;99.90
13375;DHT22;6756;51.354;15.754;2023-11-21T13:38:20;3.30;99.90
13375;DHT22;6756;51.354;15.754;2023-11-21T13:42:23;3.20;99.90
13375;DHT22;6756;51.354;15.754;2023-11-21T13:46:26;3.10;99.90
13375;DHT22;6756;51.354;15.754;2023-11-21T13:50:27;3.10;99.90
13375;DHT22;6756;51.354;15.754;2023-11-21T13:54:34;3.10;99.90
13375;DHT22;6756;51.354;15.754;2023-11-21T13:58:37;3.10;99.90
13375;DHT22;6756;51.354;15.754;2023-11-21T14:02:53;3.00;99.90
13375;DHT22;6756;51.354;15.754;2023-11-21T14:06:54;3.00;99.90
13375;DHT22;6756;51.354;15.754;2023-11-21T14:10:55;2.90;99.90
13375;DHT22;6756;51.354;15.754;2023-11-21T14:15:00;2.90;99.90
13375;DHT22;6756;51.354;15.754;2023-11-21T14:19:05;2.80;99.90
13375;DHT22;6756;51.354;15.754;2023-11-21T14:23:16;2.80;99.90
13375;DHT22;6756;51.354;15.754;2023-11-21T14:27:21;2.70;99.90
13375;DHT22;6756;51.354;15.754;2023-11-21T14:31:38;2.60;99.90
13375;DHT22;6756;51.354;15.754;2023-11-21T14:35:42;2.60;99.90
13375;DHT22;6756;51.354;15.754;2023-11-21T14:39:43;2.50;99.90
13375;DHT22;6756;51.354;15.754;2023-11-21T14:43:48;2.40;99.90
13375;DHT22;6756;51.354;15.754;2023-11-21T14:47:50;2.40;99.90
13375;DHT22;6756;51.354;15.754;2023-11-21T14:52:06;2.40;99.90
13375;DHT22;6756;51.354;15.754;2023-11-21T14:56:29;2.40;99.90
13375;DHT22;6756;51.354;15.754;2023-11-21T15:00:35;2.30;99.90
13375;DHT22;6756;51.354;15.754;2023-11-21T15:04:36;2.10;99.90
13375;DHT22;6756;51.354;15.754;2023-11-21T15:08:39;2.00;99.90
13375;DHT22;6756;51.354;15.754;2023-11-21T15:12:43;2.00;99.90
13375;DHT22;6756;51.354;15.754;2023-11-21T15:16:44;2.10;99.90
13375;DHT22;6756;51.354;15.754;2023-11-21T15:20:50;2.00;99.90
13375;DHT22;6756;51.354;15.754;2023-11-21T15:24:51;2.00;99.90
13375;DHT22;6756;51.354;15.754;2023-11-21T15:28:56;1.90;99.90
13375;DHT22;6756;51.354;15.754;2023-11-21T15:32:58;1.90;99.90
13375;DHT22;6756;51.354;15.754;2023-11-21T15:36:59;1.90;99.90
13375;DHT22;6756;51.354;15.754;2023-11-21T15:41:00;1.90;99.90
13375;DHT22;6756;51.354;15.754;2023-11-21T15:45:02;1.90;99.90
13375;DHT22;6756;51.354;15.754;2023-11-21T15:49:03;1.80;99.90
13375;DHT22;6756;51.354;15.754;2023-11-21T15:53:12;1.80;99.90
13375;DHT22;6756;51.354;15.754;2023-11-21T15:57:13;1.80;99.90
13375;DHT22;6756;51.354;15.754;2023-11-21T16:01:16;1.70;99.90
13375;DHT22;6756;51.354;15.754;2023-11-21T16:05:17;1.70;99.90
13375;DHT22;6756;51.354;15.754;2023-11-21T16:09:19;1.60;99.90
13375;DHT22;6756;51.354;15.754;2023-11-21T16:13:24;1.60;99.90
13375;DHT22;6756;51.354;15.754;2023-11-21T16:17:25;1.50;99.90
13375;DHT22;6756;51.354;15.754;2023-11-21T16:21:25;1.50;99.90
13375;DHT22;6756;51.354;15.754;2023-11-21T16:25:26;1.40;99.90
13375;DHT22;6756;51.354;15.754;2023-11-21T16:29:27;1.30;99.90
13375;DHT22;6756;51.354;15.754;2023-11-21T16:33:32;1.30;99.90
13375;DHT22;6756;51.354;15.754;2023-11-21T16:37:34;1.30;99.90
13375;DHT22;6756;51.354;15.754;2023-11-21T16:41:35;1.30;99.90
13375;DHT22;6756;51.354;15.754;2023-11-21T16:45:39;1.30;99.90
13375;DHT22;6756;51.354;15.754;2023-11-21T16:49:40;1.20;99.90
13375;DHT22;6756;51.354;15.754;2023-11-21T16:53:42;1.20;99.90
13375;DHT22;6756;51.354;15.754;2023-11-21T16:57:44;1.20;99.90
13375;DHT22;6756;51.354;15.754;2023-11-21T17:01:49;1.10;99.90
13375;DHT22;6756;51.354;15.754;2023-11-21T17:05:50;1.10;99.90
13375;DHT22;6756;51.354;15.754;2023-11-21T17:09:51;1.10;99.90
13375;DHT22;6756;51.354;15.754;2023-11-21T17:13:52;1.10;99.90
13375;DHT22;6756;51.354;15.754;2023-11-21T17:17:53;1.10;99.90
13375;DHT22;6756;51.354;15.754;2023-11-21T17:21:56;1.00;99.90
13375;DHT22;6756;51.354;15.754;2023-11-21T17:26:00;1.00;99.90
13375;DHT22;6756;51.354;15.754;2023-11-21T17:30:02;1.00;99.90
13375;DHT22;6756;51.354;15.754;2023-11-21T17:34:03;0.90;99.90
13375;DHT22;6756;51.354;15.754;2023-11-21T17:38:04;0.90;99.90
13375;DHT22;6756;51.354;15.754;2023-11-21T17:42:06;0.90;99.90
13375;DHT22;6756;51.354;15.754;2023-11-21T17:46:07;0.90;99.90
13375;DHT22;6756;51.354;15.754;2023-11-21T17:50:10;0.90;99.90
13375;DHT22;6756;51.354;15.754;2023-11-21T17:54:12;0.90;99.90
13375;DHT22;6756;51.354;15.754;2023-11-21T17:58:13;0.80;99.90
13375;DHT22;6756;51.354;15.754;2023-11-21T18:02:16;0.80;99.90
13375;DHT22;6756;51.354;15.754;2023-11-21T18:06:17;0.80;99.90
13375;DHT22;6756;51.354;15.754;2023-11-21T18:10:18;0.80;99.90
13375;DHT22;6756;51.354;15.754;2023-11-21T18:14:20;0.80;99.90
13375;DHT22;6756;51.354;15.754;2023-11-21T18:18:24;0.80;99.90
13375;DHT22;6756;51.354;15.754;2023-11-21T18:22:26;0.70;99.90
13375;DHT22;6756;51.354;15.754;2023-11-21T18:26:28;0.70;99.90
13375;DHT22;6756;51.354;15.754;2023-11-21T18:30:29;0.70;99.90
13375;DHT22;6756;51.354;15.754;2023-11-21T18:34:30;0.70;99.90
13375;DHT22;6756;51.354;15.754;2023-11-21T18:38:31;0.70;99.90
13375;DHT22;6756;51.354;15.754;2023-11-21T18:42:32;0.70;99.90
13375;DHT22;6756;51.354;15.754;2023-11-21T18:46:40;0.60;99.90
13375;DHT22;6756;51.354;15.754;2023-11-21T18:50:41;0.60;99.90
13375;DHT22;6756;51.354;15.754;2023-11-21T18:54:43;0.60;99.90
13375;DHT22;6756;51.354;15.754;2023-11-21T18:58:44;0.60;99.90
13375;DHT22;6756;51.354;15.754;2023-11-21T19:02:45;0.60;99.90
13375;DHT22;6756;51.354;15.754;2023-11-21T19:06:48;0.60;99.90
13375;DHT22;6756;51.354;15.754;2023-11-21T19:10:49;0.60;99.90
13375;DHT22;6756;51.354;15.754;2023-11-21T19:14:52;0.60;99.90
13375;DHT22;6756;51.354;15.754;2023-11-21T19:18:53;0.50;99.90
13375;DHT22;6756;51.354;15.754;2023-11-21T19:22:53;0.50;99.90
13375;DHT22;6756;51.354;15.754;2023-11-21T19:26:56;0.50;99.90
13375;DHT22;6756;51.354;15.754;2023-11-21T19:30:57;0.50;99.90
13375;DHT22;6756;51.354;15.754;2023-11-21T19:34:59;0.50;99.90
13375;DHT22;6756;51.354;15.754;2023-11-21T19:39:00;0.50;99.90
13375;DHT22;6756;51.354;15.754;2023-11-21T19:43:01;0.40;99.90
13375;DHT22;6756;51.354;15.754;2023-11-21T19:47:04;0.40;99.90
13375;DHT22;6756;51.354;15.754;2023-11-21T19:51:05;0.50;99.90
13375;DHT22;6756;51.354;15.754;2023-11-21T19:55:08;0.50;99.90
13375;DHT22;6756;51.354;15.754;2023-11-21T19:59:11;0.40;99.90
13375;DHT22;6756;51.354;15.754;2023-11-21T20:03:12;0.40;99.90
13375;DHT22;6756;51.354;15.754;2023-11-21T20:07:14;0.30;99.90
13375;DHT22;6756;51.354;15.754;2023-11-21T20:11:19;0.30;99.90
13375;DHT22;6756;51.354;15.754;2023-11-21T20:15:24;0.30;99.90
13375;DHT22;6756;51.354;15.754;2023-11-21T20:19:28;0.30;99.90
13375;DHT22;6756;51.354;15.754;2023-11-21T20:23:30;0.20;99.90
13375;DHT22;6756;51.354;15.754;2023-11-21T20:27:35;0.30;99.90
13375;DHT22;6756;51.354;15.754;2023-11-21T20:31:36;0.30;99.90
13375;DHT22;6756;51.354;15.754;2023-11-21T20:35:37;0.30;99.90
13375;DHT22;6756;51.354;15.754;2023-11-21T20:39:40;0.30;99.90
13375;DHT22;6756;51.354;15.754;2023-11-21T20:43:41;0.20;99.90
13375;DHT22;6756;51.354;15.754;2023-11-21T20:47:42;0.20;99.90
13375;DHT22;6756;51.354;15.754;2023-11-21T20:51:43;0.20;99.90
13375;DHT22;6756;51.354;15.754;2023-11-21T20:55:45;0.20;99.90
13375;DHT22;6756;51.354;15.754;2023-11-21T20:59:49;0.20;99.90
13375;DHT22;6756;51.354;15.754;2023-11-21T21:03:51;0.20;99.90
13375;DHT22;6756;51.354;15.754;2023-11-21T21:07:53;0.20;99.90
13375;DHT22;6756;51.354;15.754;2023-11-21T21:11:56;0.10;99.90
13375;DHT22;6756;51.354;15.754;2023-11-21T21:15:57;0.10;99.90
13375;DHT22;6756;51.354;15.754;2023-11-21T21:20:01;0.20;99.90
13375;DHT22;6756;51.354;15.754;2023-11-21T21:24:04;0.20;99.90
13375;DHT22;6756;51.354;15.754;2023-11-21T21:28:06;0.20;99.90
13375;DHT22;6756;51.354;15.754;2023-11-21T21:32:07;0.10;99.90
13375;DHT22;6756;51.354;15.754;2023-11-21T21:36:12;0.10;99.90
13375;DHT22;6756;51.354;15.754;2023-11-21T21:40:14;0.10;99.90
13375;DHT22;6756;51.354;15.754;2023-11-21T21:44:15;0.10;99.90
13375;DHT22;6756;51.354;15.754;2023-11-21T21:48:16;0.10;99.90
13375;DHT22;6756;51.354;15.754;2023-11-21T21:52:17;0.20;99.90
13375;DHT22;6756;51.354;15.754;2023-11-21T21:56:19;0.20;99.90
13375;DHT22;6756;51.354;15.754;2023-11-21T22:00:21;0.20;99.90
13375;DHT22;6756;51.354;15.754;2023-11-21T22:04:23;0.10;99.90
13375;DHT22;6756;51.354;15.754;2023-11-21T22:08:25;0.10;99.90
13375;DHT22;6756;51.354;15.754;2023-11-21T22:12:26;0.10;99.90
13375;DHT22;6756;51.354;15.754;2023-11-21T22:16:26;0.10;99.90
13375;DHT22;6756;51.354;15.754;2023-11-21T22:20:30;0.10;99.90
13375;DHT22;6756;51.354;15.754;2023-11-21T22:24:31;0.10;99.90
13375;DHT22;6756;51.354;15.754;2023-11-21T22:28:34;0.10;99.90
13375;DHT22;6756;51.354;15.754;2023-11-21T22:32:35;0.00;99.90
13375;DHT22;6756;51.354;15.754;2023-11-21T22:36:37;0.00;99.90
13375;DHT22;6756;51.354;15.754;2023-11-21T22:40:38;0.00;99.90
13375;DHT22;6756;51.354;15.754;2023-11-21T22:44:43;0.00;99.90
13375;DHT22;6756;51.354;15.754;2023-11-21T22:48:44;0.00;99.90
13375;DHT22;6756;51.354;15.754;2023-11-21T22:52:46;0.00;99.90
13375;DHT22;6756;51.354;15.754;2023-11-21T22:56:49;0.00;99.90
13375;DHT22;6756;51.354;15.754;2023-11-21T23:00:51;0.00;99.90
13375;DHT22;6756;51.354;15.754;2023-11-21T23:04:57;-0.10;99.90
13375;DHT22;6756;51.354;15.754;2023-11-21T23:08:58;-0.10;99.90
13375;DHT22;6756;51.354;15.754;2023-11-21T23:12:59;0.00;99.90
13375;DHT22;6756;51.354;15.754;2023-11-21T23:17:03;-0.10;99.90
13375;DHT22;6756;51.354;15.754;2023-11-21T23:21:04;-0.10;99.90
13375;DHT22;6756;51.354;15.754;2023-11-21T23:25:08;-0.10;99.90
13375;DHT22;6756;51.354;15.754;2023-11-21T23:29:09;-0.10;99.90
13375;DHT22;6756;51.354;15.754;2023-11-21T23:33:11;-0.10;99.90
13375;DHT22;6756;51.354;15.754;2023-11-21T23:37:13;-0.10;99.90
13375;DHT22;6756;51.354;15.754;2023-11-21T23:41:14;-0.20;99.90
13375;DHT22;6756;51.354;15.754;2023-11-21T23:45:16;-0.20;99.90
13375;DHT22;6756;51.354;15.754;2023-11-21T23:49:18;-0.20;99.90
13375;DHT22;6756;51.354;15.754;2023-11-21T23:53:19;-0.20;99.90
13375;DHT22;6756;51.354;15.754;2023-11-21T23:57:19;-0.20;99.90
